Groton, Massachusetts
Current Conditions -  °F | °C
As of 4:07 AM on Friday 31 Oct 2014 (Local Time) from KFIT Reporting Station
Overcast Overcast  
Wind Chill: 43°   Ceiling: 2300
Heat Index: 43°   Visibility: 10mi
Dew Point: 38°   Wind: 0mph
Humidity: 82%   Direction: NA
Pressure: 30.02"   Gusts: NA
Location:  42.61°N, 71.57°W
Report Text: KFIT 310807Z AUTO 00000KT 10SM BKN023 OVC055 06/03 A3002 RMK AO2 T00610033
Loading
Personal Weather Stations






























Interactive Weather Map
Tropical Storm Tracking
New forecast layout! Learn more

10-Day Weather Forecast

Advertisements
Track Severe Weather on mobile